createdAt,value
2018-10-02T00:02:07.578Z,101210.00
2018-10-02T00:04:36.398Z,101213.00
2018-10-02T00:07:05.222Z,101205.00
2018-10-02T00:09:34.813Z,101209.00
2018-10-02T00:12:08.972Z,101205.00
2018-10-02T00:14:37.770Z,101210.00
2018-10-02T00:17:06.573Z,101207.00
2018-10-02T00:19:35.374Z,101213.00
2018-10-02T00:22:04.189Z,101215.00
2018-10-02T00:24:33.045Z,101223.00
2018-10-02T00:27:01.845Z,101220.00
2018-10-02T00:29:31.117Z,101213.00
2018-10-02T00:31:59.987Z,101211.00
2018-10-02T00:34:28.734Z,101215.00
2018-10-02T00:36:57.590Z,101228.00
2018-10-02T00:39:26.419Z,101219.00
2018-10-02T00:41:55.250Z,101217.00
2018-10-02T00:44:24.052Z,101224.00
2018-10-02T00:46:52.849Z,101218.00
2018-10-02T00:49:21.670Z,101223.00
2018-10-02T00:51:50.754Z,101218.00
2018-10-02T00:54:19.553Z,101219.00
2018-10-02T00:56:48.374Z,101228.00
2018-10-02T00:59:17.201Z,101226.00
2018-10-02T01:01:46.016Z,101217.00
2018-10-02T01:04:14.827Z,101228.00
2018-10-02T01:06:43.613Z,101243.00
2018-10-02T01:09:13.210Z,101235.00
2018-10-02T01:11:43.115Z,101228.00
2018-10-02T01:14:12.742Z,101217.00
2018-10-02T01:16:41.609Z,101224.00
2018-10-02T01:19:10.405Z,101235.00
2018-10-02T01:21:39.243Z,101225.00
2018-10-02T01:24:08.046Z,101229.00
2018-10-02T01:26:36.849Z,101235.00
2018-10-02T01:29:05.657Z,101228.00
2018-10-02T01:31:34.460Z,101226.00
2018-10-02T01:34:03.259Z,101235.00
2018-10-02T01:36:32.654Z,101227.00
2018-10-02T01:39:01.450Z,101229.00
2018-10-02T01:41:30.334Z,101226.00
2018-10-02T01:43:59.189Z,101235.00
2018-10-02T01:46:28.000Z,101224.00
2018-10-02T01:48:56.831Z,101228.00
2018-10-02T01:51:25.727Z,101224.00
2018-10-02T01:53:54.542Z,101222.00
2018-10-02T01:56:23.354Z,101219.00
2018-10-02T01:58:52.665Z,101214.00
2018-10-02T02:01:21.471Z,101222.00
2018-10-02T02:03:50.267Z,101219.00
2018-10-02T02:06:19.082Z,101222.00
2018-10-02T02:08:47.910Z,101223.00
2018-10-02T02:11:16.718Z,101236.00
2018-10-02T02:13:45.842Z,101232.00
2018-10-02T02:16:14.682Z,101229.00
2018-10-02T02:18:43.488Z,101234.00
2018-10-02T02:21:12.743Z,101238.00
2018-10-02T02:23:41.545Z,101230.00
2018-10-02T02:26:10.345Z,101221.00
2018-10-02T02:28:39.125Z,101235.00
2018-10-02T02:31:07.922Z,101236.00
2018-10-02T02:33:36.758Z,101242.00
2018-10-02T02:36:05.573Z,101236.00
2018-10-02T02:38:34.413Z,101233.00
2018-10-02T02:41:03.229Z,101231.00
2018-10-02T02:43:32.397Z,101236.00
2018-10-02T02:46:01.189Z,101234.00
2018-10-02T02:48:35.528Z,101239.00
2018-10-02T02:51:09.623Z,101237.00
2018-10-02T02:53:38.414Z,101242.00
2018-10-02T02:56:07.306Z,101251.00
2018-10-02T02:58:36.090Z,101257.00
2018-10-02T03:01:05.333Z,101254.00
2018-10-02T03:03:34.118Z,101243.00
2018-10-02T03:06:02.935Z,101249.00
2018-10-02T03:08:32.213Z,101240.00
2018-10-02T03:11:01.015Z,101241.00
2018-10-02T03:13:29.808Z,101239.00
2018-10-02T03:15:59.086Z,101232.00
2018-10-02T03:18:27.911Z,101230.00
2018-10-02T03:20:56.697Z,101230.00
2018-10-02T03:23:25.850Z,101229.00
2018-10-02T03:25:54.721Z,101229.00
2018-10-02T03:28:23.508Z,101231.00
2018-10-02T03:30:52.318Z,101217.00
2018-10-02T03:33:21.122Z,101219.00
2018-10-02T03:35:49.925Z,101234.00
2018-10-02T03:38:18.726Z,101236.00
2018-10-02T03:40:47.579Z,101237.00
2018-10-02T03:43:16.369Z,101239.00
2018-10-02T03:45:45.455Z,101238.00
2018-10-02T03:48:14.255Z,101235.00
2018-10-02T03:50:43.049Z,101235.00
2018-10-02T03:53:11.909Z,101236.00
2018-10-02T03:55:40.771Z,101236.00
2018-10-02T03:58:09.653Z,101227.00
2018-10-02T04:00:38.554Z,101235.00
2018-10-02T04:03:07.415Z,101227.00
2018-10-02T04:05:36.211Z,101227.00
2018-10-02T04:08:05.314Z,101230.00
2018-10-02T04:10:34.094Z,101223.00
2018-10-02T04:13:02.988Z,101226.00
2018-10-02T04:15:31.803Z,101229.00
2018-10-02T04:18:00.947Z,101232.00
2018-10-02T04:20:30.012Z,101235.00
2018-10-02T04:22:58.859Z,101252.00
2018-10-02T04:25:27.690Z,101243.00
2018-10-02T04:27:56.557Z,101237.00
2018-10-02T04:30:25.779Z,101224.00
2018-10-02T04:32:54.582Z,101235.00
2018-10-02T04:35:23.390Z,101237.00
2018-10-02T04:37:52.203Z,101251.00
2018-10-02T04:40:21.674Z,101238.00
2018-10-02T04:42:50.526Z,101246.00
2018-10-02T04:45:19.360Z,101261.00
2018-10-02T04:47:50.465Z,101258.00
2018-10-02T04:50:19.282Z,101256.00
2018-10-02T04:52:48.531Z,101263.00
2018-10-02T04:55:17.327Z,101257.00
2018-10-02T04:57:46.177Z,101253.00
2018-10-02T05:00:15.337Z,101257.00
2018-10-02T05:02:44.180Z,101254.00
2018-10-02T05:05:12.989Z,101249.00
2018-10-02T05:07:41.851Z,101247.00
2018-10-02T05:10:10.919Z,101263.00
2018-10-02T05:12:39.738Z,101271.00
2018-10-02T05:15:09.510Z,101260.00
2018-10-02T05:17:38.340Z,101265.00
2018-10-02T05:20:09.245Z,101269.00
2018-10-02T05:22:38.106Z,101277.00
2018-10-02T05:29:59.823Z,101290.00
2018-10-02T05:32:28.623Z,101285.00
2018-10-02T05:34:57.461Z,101283.00
2018-10-02T05:37:26.958Z,101270.00
2018-10-02T05:39:55.762Z,101270.00
2018-10-02T05:42:24.633Z,101266.00
2018-10-02T05:44:53.467Z,101279.00
2018-10-02T05:47:22.299Z,101285.00
2018-10-02T05:49:51.115Z,101278.00
2018-10-02T05:52:19.941Z,101280.00
2018-10-02T05:54:48.753Z,101280.00
2018-10-02T05:57:17.571Z,101281.00
2018-10-02T05:59:46.887Z,101279.00
2018-10-02T06:02:16.419Z,101282.00
2018-10-02T06:04:45.260Z,101282.00
2018-10-02T06:07:14.118Z,101288.00
2018-10-02T06:09:42.963Z,101293.00
2018-10-02T06:12:11.755Z,101293.00
2018-10-02T06:14:40.575Z,101305.00
2018-10-02T06:17:09.397Z,101310.00
2018-10-02T06:19:38.251Z,101320.00
2018-10-02T06:22:07.755Z,101309.00
2018-10-02T06:24:36.577Z,101312.00
2018-10-02T06:27:05.622Z,101318.00
2018-10-02T06:29:34.955Z,101329.00
2018-10-02T06:32:03.784Z,101309.00
2018-10-02T06:34:32.594Z,101323.00
2018-10-02T06:37:01.401Z,101312.00
2018-10-02T06:39:31.562Z,101309.00
2018-10-02T06:42:01.201Z,101306.00
2018-10-02T06:44:31.546Z,101314.00
2018-10-02T06:47:00.342Z,101304.00
2018-10-02T06:49:29.129Z,101312.00
2018-10-02T06:51:58.035Z,101303.00
2018-10-02T06:54:26.790Z,101309.00
2018-10-02T06:56:55.663Z,101309.00
2018-10-02T06:59:24.517Z,101301.00
2018-10-02T07:01:53.314Z,101288.00
2018-10-02T07:04:22.129Z,101296.00
2018-10-02T07:06:51.297Z,101296.00
2018-10-02T07:09:20.057Z,101286.00
2018-10-02T07:11:48.902Z,101290.00
2018-10-02T07:14:17.715Z,101280.00
2018-10-02T07:16:46.571Z,101284.00
2018-10-02T07:19:15.456Z,101283.00
2018-10-02T07:21:44.290Z,101278.00
2018-10-02T07:24:13.496Z,101278.00
2018-10-02T07:26:42.393Z,101268.00
2018-10-02T07:29:11.764Z,101260.00
2018-10-02T07:31:40.561Z,101269.00
2018-10-02T07:34:09.365Z,101273.00
2018-10-02T07:36:38.267Z,101279.00
2018-10-02T07:39:08.262Z,101276.00
2018-10-02T07:41:37.009Z,101267.00
2018-10-02T07:44:06.092Z,101274.00
2018-10-02T07:46:34.918Z,101273.00
2018-10-02T07:49:03.721Z,101270.00
2018-10-02T07:51:32.935Z,101272.00
2018-10-02T07:54:01.731Z,101276.00
2018-10-02T07:56:30.585Z,101274.00
2018-10-02T07:58:59.348Z,101271.00
2018-10-02T08:01:28.154Z,101270.00
2018-10-02T08:03:56.965Z,101266.00
2018-10-02T08:06:25.781Z,101274.00
2018-10-02T08:08:54.632Z,101259.00
2018-10-02T08:11:23.444Z,101271.00
2018-10-02T08:13:52.520Z,101263.00
2018-10-02T08:16:21.328Z,101273.00
2018-10-02T08:18:50.124Z,101255.00
2018-10-02T08:21:18.951Z,101259.00
2018-10-02T08:23:47.778Z,101251.00
2018-10-02T08:26:17.150Z,101251.00
2018-10-02T08:28:45.957Z,101251.00
2018-10-02T08:31:14.761Z,101240.00
2018-10-02T08:33:43.595Z,101248.00
2018-10-02T08:36:12.898Z,101244.00
2018-10-02T08:38:41.685Z,101237.00
2018-10-02T08:41:10.455Z,101232.00
2018-10-02T08:43:39.333Z,101222.00
2018-10-02T08:46:08.115Z,101223.00
2018-10-02T08:48:36.910Z,101210.00
2018-10-02T08:51:05.834Z,101221.00
2018-10-02T08:53:34.914Z,101201.00
2018-10-02T08:56:03.694Z,101202.00
2018-10-02T08:58:33.169Z,101200.00
2018-10-02T09:01:02.070Z,101200.00
2018-10-02T09:03:30.883Z,101204.00
2018-10-02T09:05:59.731Z,101203.00
2018-10-02T09:08:28.547Z,101194.00
2018-10-02T09:10:57.395Z,101203.00
2018-10-02T09:13:26.224Z,101203.00
2018-10-02T09:15:55.197Z,101207.00
2018-10-02T09:18:23.872Z,101194.00
2018-10-02T09:20:53.352Z,101201.00
2018-10-02T09:23:22.171Z,101186.00
2018-10-02T09:25:51.128Z,101182.00
2018-10-02T09:28:20.629Z,101186.00
2018-10-02T09:30:54.867Z,101194.00
2018-10-02T09:33:29.148Z,101181.00
2018-10-02T09:36:03.334Z,101178.00
2018-10-02T09:38:37.862Z,101178.00
2018-10-02T09:41:12.148Z,101180.00
2018-10-02T09:43:45.594Z,101186.00
2018-10-02T09:46:14.396Z,101173.00
2018-10-02T09:48:43.366Z,101175.00
2018-10-02T09:51:12.095Z,101156.00
2018-10-02T09:53:40.914Z,101152.00
2018-10-02T09:56:09.739Z,101148.00
2018-10-02T09:58:38.981Z,101149.00
2018-10-02T10:01:13.079Z,101152.00
2018-10-02T10:03:41.869Z,101133.00
2018-10-02T10:06:10.687Z,101143.00
2018-10-02T10:08:39.476Z,101141.00
2018-10-02T10:11:08.305Z,101134.00
2018-10-02T10:13:37.157Z,101139.00
2018-10-02T10:16:05.979Z,101134.00
2018-10-02T10:18:35.282Z,101128.00
2018-10-02T10:21:04.092Z,101127.00
2018-10-02T10:23:32.964Z,101123.00
2018-10-02T10:26:01.815Z,101121.00
2018-10-02T10:28:31.209Z,101129.00
2018-10-02T10:31:00.062Z,101133.00
2018-10-02T10:33:28.935Z,101118.00
2018-10-02T10:35:57.682Z,101142.00
2018-10-02T10:38:26.518Z,101120.00
2018-10-02T10:40:55.756Z,101116.00
2018-10-02T10:43:24.503Z,101117.00
2018-10-02T10:45:53.310Z,101109.00
2018-10-02T10:48:22.187Z,101108.00
2018-10-02T10:50:51.024Z,101110.00
2018-10-02T10:53:19.831Z,101103.00
2018-10-02T10:55:48.698Z,101096.00
2018-10-02T10:58:17.499Z,101088.00
2018-10-02T11:00:46.347Z,101091.00
2018-10-02T11:03:15.810Z,101091.00
2018-10-02T11:05:44.633Z,101083.00
2018-10-02T11:08:13.453Z,101076.00
2018-10-02T11:10:42.311Z,101068.00
2018-10-02T11:13:11.112Z,101087.00
2018-10-02T11:15:39.936Z,101076.00
2018-10-02T11:18:08.734Z,101074.00
2018-10-02T11:20:38.163Z,101068.00
2018-10-02T11:23:06.978Z,101075.00
2018-10-02T11:25:36.430Z,101082.00
2018-10-02T11:28:05.196Z,101075.00
2018-10-02T11:30:34.662Z,101073.00
2018-10-02T11:33:03.486Z,101068.00
2018-10-02T11:35:32.414Z,101067.00
2018-10-02T11:38:01.130Z,101056.00
2018-10-02T11:40:29.972Z,101054.00
2018-10-02T11:42:58.802Z,101046.00
2018-10-02T11:45:27.629Z,101031.00
2018-10-02T11:47:56.777Z,101027.00
2018-10-02T11:50:25.594Z,101020.00
2018-10-02T11:52:54.469Z,101009.00
2018-10-02T11:55:23.374Z,101000.00
2018-10-02T11:57:52.090Z,100996.00
2018-10-02T12:00:20.955Z,100988.00
2018-10-02T12:02:49.715Z,100968.00
2018-10-02T12:05:18.530Z,100962.00
2018-10-02T12:07:47.342Z,100969.00
2018-10-02T12:10:16.695Z,100953.00
2018-10-02T12:12:45.504Z,100961.00
2018-10-02T12:15:14.351Z,100968.00
2018-10-02T12:17:43.138Z,100954.00
2018-10-02T12:20:11.965Z,100959.00
2018-10-02T12:22:40.770Z,100944.00
2018-10-02T12:25:09.682Z,100955.00
2018-10-02T12:27:38.492Z,100932.00
2018-10-02T12:30:08.857Z,100927.00
2018-10-02T12:32:38.460Z,100940.00
2018-10-02T12:35:08.537Z,100938.00
2018-10-02T12:37:37.359Z,100930.00
2018-10-02T12:44:59.375Z,100899.00
2018-10-02T12:47:28.195Z,100890.00
2018-10-02T12:49:57.007Z,100900.00
2018-10-02T12:52:26.328Z,100889.00
2018-10-02T12:54:55.162Z,100875.00
2018-10-02T12:57:24.019Z,100877.00
2018-10-02T12:59:52.856Z,100872.00
2018-10-02T13:02:21.721Z,100869.00
2018-10-02T13:04:50.550Z,100879.00
2018-10-02T13:07:19.387Z,100873.00
2018-10-02T13:09:48.167Z,100861.00
2018-10-02T13:12:16.977Z,100853.00
2018-10-02T13:14:46.118Z,100847.00
2018-10-02T13:17:15.042Z,100843.00
2018-10-02T13:19:43.890Z,100837.00
2018-10-02T13:22:12.773Z,100833.00
2018-10-02T13:24:41.608Z,100829.00
2018-10-02T13:27:10.417Z,100831.00
2018-10-02T13:29:39.310Z,100829.00
2018-10-02T13:32:08.177Z,100837.00
2018-10-02T13:34:37.510Z,100835.00
2018-10-02T13:37:06.755Z,100836.00
2018-10-02T13:39:35.572Z,100833.00
2018-10-02T13:42:04.373Z,100834.00
2018-10-02T13:44:33.235Z,100836.00
2018-10-02T13:47:02.009Z,100836.00
2018-10-02T13:49:30.875Z,100826.00
2018-10-02T13:51:59.734Z,100829.00
2018-10-02T13:54:28.544Z,100822.00
2018-10-02T13:56:57.374Z,100806.00
2018-10-02T13:59:26.613Z,100805.00
2018-10-02T14:01:55.439Z,100804.00
2018-10-02T14:04:24.397Z,100789.00
2018-10-02T14:06:53.217Z,100785.00
2018-10-02T14:09:22.047Z,100782.00
2018-10-02T14:11:50.865Z,100787.00
2018-10-02T14:14:19.700Z,100781.00
2018-10-02T14:16:48.518Z,100771.00
2018-10-02T14:19:17.343Z,100771.00
2018-10-02T14:21:46.762Z,100752.00
2018-10-02T14:24:15.539Z,100759.00
2018-10-02T14:26:44.386Z,100750.00
2018-10-02T14:29:13.193Z,100749.00
2018-10-02T14:31:42.004Z,100749.00
2018-10-02T14:34:10.828Z,100752.00
2018-10-02T14:36:40.328Z,100736.00
2018-10-02T14:39:10.175Z,100740.00
2018-10-02T14:41:39.242Z,100723.00
2018-10-02T14:44:08.547Z,100729.00
2018-10-02T14:46:37.383Z,100718.00
2018-10-02T14:49:06.199Z,100715.00
2018-10-02T14:51:35.034Z,100711.00
2018-10-02T14:54:03.835Z,100705.00
2018-10-02T14:56:32.627Z,100699.00
2018-10-02T14:59:01.683Z,100703.00
2018-10-02T15:01:30.502Z,100709.00
2018-10-02T15:03:59.340Z,100695.00
2018-10-02T15:06:28.555Z,100717.00
2018-10-02T15:08:57.375Z,100704.00
2018-10-02T15:11:26.351Z,100709.00
2018-10-02T15:13:55.214Z,100700.00
2018-10-02T15:16:24.106Z,100700.00
2018-10-02T15:18:52.906Z,100697.00
2018-10-02T15:21:21.771Z,100698.00
2018-10-02T15:23:50.587Z,100687.00
2018-10-02T15:26:19.413Z,100681.00
2018-10-02T15:28:48.508Z,100677.00
2018-10-02T15:31:17.359Z,100675.00
2018-10-02T15:33:46.099Z,100663.00
2018-10-02T15:36:14.927Z,100668.00
2018-10-02T15:38:44.404Z,100664.00
2018-10-02T15:41:13.454Z,100668.00
2018-10-02T15:43:42.292Z,100655.00
2018-10-02T15:46:11.114Z,100657.00
2018-10-02T15:48:39.950Z,100663.00
2018-10-02T15:51:09.184Z,100658.00
2018-10-02T15:53:37.927Z,100648.00
2018-10-02T15:56:06.861Z,100642.00
2018-10-02T15:58:35.681Z,100649.00
2018-10-02T16:01:04.494Z,100655.00
2018-10-02T16:03:33.351Z,100656.00
2018-10-02T16:06:02.183Z,100642.00
2018-10-02T16:08:30.977Z,100634.00
2018-10-02T16:10:59.839Z,100653.00
2018-10-02T16:13:29.153Z,100648.00
2018-10-02T16:15:57.954Z,100637.00
2018-10-02T16:18:26.910Z,100630.00
2018-10-02T16:20:55.686Z,100645.00
2018-10-02T16:23:24.565Z,100650.00
2018-10-02T16:25:53.386Z,100646.00
2018-10-02T16:28:22.265Z,100658.00
2018-10-02T16:30:51.174Z,100646.00
2018-10-02T16:33:20.025Z,100647.00
2018-10-02T16:35:49.357Z,100651.00
2018-10-02T16:38:18.220Z,100666.00
2018-10-02T16:40:47.473Z,100645.00
2018-10-02T16:43:16.304Z,100643.00
2018-10-02T16:45:45.146Z,100653.00
2018-10-02T16:48:13.938Z,100639.00
2018-10-02T16:50:42.842Z,100642.00
2018-10-02T16:53:11.639Z,100639.00
2018-10-02T16:55:40.554Z,100640.00
2018-10-02T16:58:09.625Z,100627.00
2018-10-02T17:00:38.490Z,100620.00
2018-10-02T17:03:07.292Z,100622.00
2018-10-02T17:05:36.165Z,100627.00
2018-10-02T17:08:04.982Z,100628.00
2018-10-02T17:10:33.827Z,100626.00
2018-10-02T17:13:02.673Z,100629.00
2018-10-02T17:15:31.490Z,100624.00
2018-10-02T17:18:00.282Z,100624.00
2018-10-02T17:20:29.384Z,100615.00
2018-10-02T17:22:58.250Z,100621.00
2018-10-02T17:25:27.094Z,100630.00
2018-10-02T17:27:55.923Z,100630.00
2018-10-02T17:30:24.744Z,100630.00
2018-10-02T17:32:53.557Z,100627.00
2018-10-02T17:35:22.370Z,100639.00
2018-10-02T17:37:51.172Z,100635.00
2018-10-02T17:40:20.136Z,100650.00
2018-10-02T17:42:49.729Z,100651.00
2018-10-02T17:45:18.564Z,100655.00
2018-10-02T17:47:54.170Z,100635.00
2018-10-02T17:50:22.986Z,100645.00
2018-10-02T17:52:51.834Z,100638.00
2018-10-02T17:55:20.652Z,100652.00
2018-10-02T17:57:49.486Z,100654.00
2018-10-02T18:00:18.330Z,100644.00
2018-10-02T18:02:47.601Z,100653.00
2018-10-02T18:05:16.407Z,100655.00
2018-10-02T18:07:45.201Z,100651.00
2018-10-02T18:10:14.129Z,100648.00
2018-10-02T18:12:42.950Z,100655.00
2018-10-02T18:15:11.787Z,100648.00
2018-10-02T18:17:40.598Z,100661.00
2018-10-02T18:20:09.513Z,100658.00
2018-10-02T18:22:38.322Z,100644.00
2018-10-02T18:25:08.586Z,100655.00
2018-10-02T18:27:37.461Z,100660.00
2018-10-02T18:30:06.254Z,100650.00
2018-10-02T18:32:35.063Z,100649.00
2018-10-02T18:35:03.866Z,100652.00
2018-10-02T18:37:32.694Z,100655.00
2018-10-02T18:40:01.586Z,100655.00
2018-10-02T18:42:30.394Z,100655.00
2018-10-02T18:44:59.525Z,100648.00
2018-10-02T18:47:28.804Z,100653.00
2018-10-02T18:49:57.600Z,100656.00
2018-10-02T18:52:26.423Z,100660.00
2018-10-02T18:54:55.251Z,100659.00
2018-10-02T18:57:24.054Z,100661.00
2018-10-02T18:59:52.859Z,100658.00
2018-10-02T19:02:21.768Z,100658.00
2018-10-02T19:04:50.534Z,100662.00
2018-10-02T19:07:19.430Z,100669.00
2018-10-02T19:09:48.469Z,100653.00
2018-10-02T19:12:18.718Z,100665.00
2018-10-02T19:14:47.562Z,100655.00
2018-10-02T19:17:16.562Z,100663.00
2018-10-02T19:19:50.677Z,100663.00
2018-10-02T19:22:19.498Z,100655.00
2018-10-02T19:24:48.359Z,100654.00
2018-10-02T19:27:17.182Z,100663.00
2018-10-02T19:29:46.443Z,100660.00
2018-10-02T19:32:16.711Z,100659.00
2018-10-02T19:34:45.723Z,100649.00
2018-10-02T19:37:19.806Z,100649.00
2018-10-02T19:39:48.648Z,100648.00
2018-10-02T19:42:17.466Z,100657.00
2018-10-02T19:44:53.270Z,100645.00
2018-10-02T19:47:22.546Z,100651.00
2018-10-02T19:49:51.305Z,100650.00
2018-10-02T19:52:20.146Z,100648.00
2018-10-02T19:54:49.060Z,100641.00
2018-10-02T19:57:19.072Z,100645.00
2018-10-02T19:59:47.870Z,100651.00
2018-10-02T20:02:16.664Z,100643.00
2018-10-02T20:04:45.514Z,100632.00
2018-10-02T20:07:14.622Z,100638.00
2018-10-02T20:09:43.459Z,100641.00
2018-10-02T20:12:12.312Z,100650.00
2018-10-02T20:14:41.158Z,100634.00
2018-10-02T20:17:09.958Z,100640.00
2018-10-02T20:19:38.758Z,100639.00
2018-10-02T20:22:09.037Z,100640.00
2018-10-02T20:24:37.849Z,100648.00
2018-10-02T20:27:06.794Z,100637.00
2018-10-02T20:29:36.955Z,100633.00
2018-10-02T20:32:05.806Z,100629.00
2018-10-02T20:34:34.617Z,100629.00
2018-10-02T20:37:03.439Z,100652.00
2018-10-02T20:39:32.343Z,100663.00
2018-10-02T20:42:01.168Z,100649.00
2018-10-02T20:44:29.980Z,100644.00
2018-10-02T20:46:58.806Z,100655.00
2018-10-02T20:49:27.913Z,100671.00
2018-10-02T20:51:56.983Z,100669.00
2018-10-02T20:54:25.795Z,100661.00
2018-10-02T20:56:54.604Z,100668.00
2018-10-02T20:59:23.426Z,100666.00
2018-10-02T21:01:52.281Z,100665.00
2018-10-02T21:04:21.092Z,100671.00
2018-10-02T21:06:52.846Z,100669.00
2018-10-02T21:09:21.658Z,100684.00
2018-10-02T21:11:50.488Z,100682.00
2018-10-02T21:14:19.811Z,100666.00
2018-10-02T21:16:48.605Z,100652.00
2018-10-02T21:19:17.431Z,100664.00
2018-10-02T21:21:46.291Z,100649.00
2018-10-02T21:24:15.081Z,100655.00
2018-10-02T21:26:43.905Z,100653.00
2018-10-02T21:29:12.766Z,100655.00
2018-10-02T21:31:41.613Z,100645.00
2018-10-02T21:34:10.418Z,100658.00
2018-10-02T21:36:39.678Z,100655.00
2018-10-02T21:39:09.700Z,100631.00
2018-10-02T21:41:38.534Z,100630.00
2018-10-02T21:44:07.715Z,100647.00
2018-10-02T21:46:36.549Z,100655.00
2018-10-02T21:49:05.658Z,100649.00
2018-10-02T21:51:35.224Z,100646.00
2018-10-02T21:54:04.051Z,100633.00
2018-10-02T21:56:32.891Z,100637.00
2018-10-02T21:59:02.058Z,100638.00
2018-10-02T22:01:31.361Z,100638.00
2018-10-02T22:04:00.255Z,100635.00
2018-10-02T22:06:29.117Z,100640.00
2018-10-02T22:09:05.923Z,100638.00
2018-10-02T22:11:34.826Z,100640.00
2018-10-02T22:14:03.694Z,100634.00
2018-10-02T22:16:32.625Z,100644.00
2018-10-02T22:19:01.885Z,100641.00
2018-10-02T22:21:30.725Z,100648.00
2018-10-02T22:23:59.588Z,100647.00
2018-10-02T22:26:28.427Z,100637.00
2018-10-02T22:28:57.253Z,100641.00
2018-10-02T22:31:26.111Z,100637.00
2018-10-02T22:33:54.995Z,100638.00
2018-10-02T22:36:23.815Z,100638.00
2018-10-02T22:38:52.615Z,100643.00
2018-10-02T22:41:22.046Z,100647.00
2018-10-02T22:43:50.899Z,100631.00
2018-10-02T22:46:19.737Z,100641.00
2018-10-02T22:48:48.533Z,100638.00
2018-10-02T22:51:17.378Z,100637.00
2018-10-02T22:53:46.686Z,100634.00
2018-10-02T22:56:15.507Z,100627.00
2018-10-02T22:58:44.321Z,100628.00
2018-10-02T23:01:13.146Z,100623.00
2018-10-02T23:03:42.426Z,100628.00
2018-10-02T23:06:11.257Z,100631.00
2018-10-02T23:08:40.074Z,100617.00
2018-10-02T23:11:08.895Z,100622.00
2018-10-02T23:13:37.812Z,100621.00
2018-10-02T23:16:06.686Z,100631.00
2018-10-02T23:18:35.504Z,100631.00
2018-10-02T23:21:04.313Z,100632.00
2018-10-02T23:23:33.118Z,100639.00
2018-10-02T23:26:02.415Z,100628.00
2018-10-02T23:28:31.266Z,100639.00
2018-10-02T23:31:00.071Z,100643.00
2018-10-02T23:33:28.902Z,100639.00
2018-10-02T23:35:57.791Z,100643.00
2018-10-02T23:38:26.619Z,100647.00
2018-10-02T23:40:55.466Z,100641.00
2018-10-02T23:43:24.334Z,100648.00
2018-10-02T23:45:53.146Z,100656.00
2018-10-02T23:48:22.384Z,100648.00
2018-10-02T23:50:51.216Z,100655.00
2018-10-02T23:53:20.008Z,100655.00
2018-10-02T23:55:49.366Z,100653.00
2018-10-02T23:58:18.216Z,100653.00
